Time;durP1;ratioP1;P1;durP2;ratioP2;P2;SDS_P1;SDS_P2;PMS_P1;PMS_P2;Temp;Humidity;BMP_temperature;BMP_pressure;BME280_temperature;BME280_humidity;BME280_pressure;Samples;Min_cycle;Max_cycle;Signal;HPM_P1;HPM_P2
2021/11/23 00:00:37;;;;;;;16.13;3.97;;;;;;;-0.68;48.60;99096.25;5012405;28;20170;-71
2021/11/23 00:03:06;;;;;;;14.10;3.47;;;;;;;-0.72;48.77;99088.63;5010307;28;20076;-71
2021/11/23 00:05:33;;;;;;;14.68;3.10;;;;;;;-0.76;48.94;99090.13;5011978;28;20052;-70
2021/11/23 00:08:00;;;;;;;13.20;4.07;;;;;;;-0.86;48.80;99079.03;5010700;28;20077;-70
2021/11/23 00:10:26;;;;;;;14.68;3.67;;;;;;;-0.72;48.81;99094.00;5006803;28;20050;-70
2021/11/23 00:12:53;;;;;;;18.48;3.80;;;;;;;-0.81;48.85;99087.25;5003976;28;20462;-70
2021/11/23 00:15:19;;;;;;;13.90;3.40;;;;;;;-0.80;49.03;99096.13;5002879;28;20422;-71
2021/11/23 00:17:45;;;;;;;12.05;3.40;;;;;;;-0.81;49.04;99098.00;5004788;28;20045;-70
2021/11/23 00:20:13;;;;;;;19.92;3.10;;;;;;;-0.93;49.36;99099.75;5021048;28;20111;-71
2021/11/23 00:22:40;;;;;;;8.60;2.60;;;;;;;-0.88;49.13;99099.91;5007671;28;20077;-70
2021/11/23 00:25:08;;;;;;;13.02;3.70;;;;;;;-0.76;48.86;99095.50;5010337;28;20617;-70
2021/11/23 00:27:34;;;;;;;14.05;3.03;;;;;;;-0.72;48.84;99102.06;5026348;28;20042;-70
2021/11/23 00:30:01;;;;;;;15.82;3.78;;;;;;;-0.79;48.89;99100.47;5029826;28;20046;-69
2021/11/23 00:32:29;;;;;;;16.23;4.18;;;;;;;-0.76;48.85;99100.03;5030956;28;20042;-70
2021/11/23 00:34:56;;;;;;;12.50;3.38;;;;;;;-0.83;49.06;99100.06;5029737;28;20046;-70
2021/11/23 00:37:23;;;;;;;11.40;3.03;;;;;;;-0.83;49.06;99099.25;5026066;28;20054;-70
2021/11/23 00:39:50;;;;;;;11.95;3.70;;;;;;;-0.95;49.37;99093.75;5015829;28;20042;-70
2021/11/23 00:42:17;;;;;;;12.07;3.20;;;;;;;-0.94;49.34;99098.06;5001624;28;20046;-70
2021/11/23 00:44:43;;;;;;;12.88;3.42;;;;;;;-0.91;49.26;99100.34;5003141;28;20105;-70
2021/11/23 00:47:09;;;;;;;11.48;3.08;;;;;;;-1.02;49.30;99100.00;5009416;28;20434;-73
2021/11/23 00:49:35;;;;;;;15.30;3.78;;;;;;;-0.96;49.29;99105.53;4996526;28;20046;-73
2021/11/23 00:52:02;;;;;;;9.27;2.90;;;;;;;-1.01;49.31;99093.59;5010697;28;20050;-72
2021/11/23 00:54:30;;;;;;;19.92;3.35;;;;;;;-1.00;49.44;99097.91;5000651;28;20057;-72
2021/11/23 00:56:56;;;;;;;;;;;;;;;-0.91;49.18;99097.66;5008033;28;20053;-72
2021/11/23 00:59:22;;;;;;;11.30;3.40;;;;;;;-0.87;49.29;99093.50;5005476;28;20328;-72
2021/11/23 01:01:49;;;;;;;10.98;2.88;;;;;;;-0.86;48.80;99089.78;5011064;28;20084;-71
2021/11/23 01:04:15;;;;;;;15.63;2.80;;;;;;;-0.85;49.02;99094.09;5009182;28;20046;-71
2021/11/23 01:06:41;;;;;;;19.92;3.13;;;;;;;-0.86;48.84;99081.72;4991461;28;20037;-71
2021/11/23 01:09:07;;;;;;;8.93;2.70;;;;;;;-0.87;48.70;99099.69;5009610;28;20050;-71
2021/11/23 01:11:35;;;;;;;13.73;3.33;;;;;;;-0.86;48.92;99097.81;5010522;28;20413;-71
2021/11/23 01:14:01;;;;;;;15.25;3.40;;;;;;;-0.92;48.91;99104.88;5009976;28;20107;-70
2021/11/23 01:16:27;;;;;;;14.77;3.53;;;;;;;-0.90;49.03;99110.03;5004907;28;20042;-70
2021/11/23 01:18:53;;;;;;;12.68;3.83;;;;;;;-0.91;48.79;99090.41;5010527;28;20135;-71
2021/11/23 01:21:20;;;;;;;16.52;3.78;;;;;;;-0.90;49.00;99094.75;5011208;28;20077;-70
2021/11/23 01:23:46;;;;;;;11.30;2.92;;;;;;;-0.90;48.97;99100.13;5007501;28;20073;-71
2021/11/23 01:26:12;;;;;;;17.45;3.83;;;;;;;-0.79;49.05;99092.41;5006364;28;20136;-72
2021/11/23 01:28:40;;;;;;;15.38;3.70;;;;;;;-0.76;48.66;99097.34;5010661;28;20049;-70
2021/11/23 01:31:06;;;;;;;14.15;3.63;;;;;;;-0.82;48.85;99101.72;5009756;28;20104;-71
2021/11/23 01:33:32;;;;;;;13.38;3.00;;;;;;;-0.82;48.72;99101.72;5009284;28;20042;-71
2021/11/23 01:35:58;;;;;;;14.70;3.83;;;;;;;-0.80;48.62;99088.88;5008029;28;20069;-71
2021/11/23 01:38:24;;;;;;;12.93;3.10;;;;;;;-0.78;48.49;99088.69;5008188;28;20050;-71
2021/11/23 01:40:50;;;;;;;14.23;3.25;;;;;;;-0.76;48.59;99100.03;4993015;28;20050;-73
2021/11/23 01:43:17;;;;;;;16.88;3.25;;;;;;;-0.76;48.38;99108.91;5006048;28;20462;-73
2021/11/23 01:45:44;;;;;;;16.17;4.05;;;;;;;-0.74;48.36;99100.63;5009275;28;20486;-72
2021/11/23 01:48:11;;;;;;;14.10;3.65;;;;;;;-0.72;48.40;99101.22;5009174;28;20514;-73
2021/11/23 01:50:38;;;;;;;12.95;3.63;;;;;;;-0.76;48.31;99100.03;4991881;28;20057;-73
2021/11/23 01:53:06;;;;;;;14.35;3.60;;;;;;;-0.72;48.48;99107.44;5009680;28;20038;-72
2021/11/23 01:55:34;;;;;;;17.10;3.35;;;;;;;-0.76;48.47;99105.41;4980566;28;20061;-71
2021/11/23 01:58:02;;;;;;;16.30;3.65;;;;;;;-0.82;48.49;99114.31;4979244;28;20050;-70
2021/11/23 02:00:29;;;;;;;19.33;3.75;;;;;;;-0.84;48.66;99101.13;5012222;28;20042;-72
2021/11/23 02:02:58;;;;;;;14.73;4.72;;;;;;;-0.89;48.64;99104.44;5026168;28;20058;-71
2021/11/23 02:05:25;;;;;;;19.83;3.67;;;;;;;-0.87;48.54;99105.03;5011710;28;20033;-72
2021/11/23 02:07:51;;;;;;;31.40;4.65;;;;;;;-0.88;48.27;99113.31;5033160;28;20109;-73
2021/11/23 02:10:18;;;;;;;13.30;3.90;;;;;;;-0.91;48.42;99098.47;5032991;28;20038;-72
2021/11/23 02:12:44;;;;;;;14.57;4.10;;;;;;;-0.93;48.51;99110.47;5007236;28;20049;-72
2021/11/23 02:15:11;;;;;;;18.23;4.03;;;;;;;-0.96;48.46;99109.03;5005842;28;20049;-73
2021/11/23 02:17:38;;;;;;;21.25;4.28;;;;;;;-0.95;48.52;99107.16;5001947;28;20046;-73
2021/11/23 02:20:10;;;;;;;20.15;5.47;;;;;;;-1.02;48.59;99093.78;5002402;28;20132;-72
2021/11/23 02:22:36;;;;;;;18.15;4.32;;;;;;;-1.04;48.71;99101.22;5011568;28;20426;-71
2021/11/23 02:25:03;;;;;;;23.00;4.20;;;;;;;-1.08;48.85;99089.28;4994944;28;20045;-72
2021/11/23 02:27:29;;;;;;;15.43;4.60;;;;;;;-1.09;48.71;99096.53;5010213;28;20391;-71
2021/11/23 02:29:55;;;;;;;27.48;5.45;;;;;;;-1.15;48.89;99095.53;5009857;28;20054;-72
2021/11/23 02:32:21;;;;;;;18.70;5.03;;;;;;;-1.17;48.91;99102.13;5004269;28;20042;-72
2021/11/23 02:34:48;;;;;;;23.00;4.72;;;;;;;-1.18;49.02;99105.88;4976030;28;20564;-72
2021/11/23 02:37:15;;;;;;;15.20;3.80;;;;;;;-1.20;49.11;99099.91;5008470;28;20065;-72
2021/11/23 02:39:42;;;;;;;22.30;4.20;;;;;;;-1.20;49.13;99100.69;5011645;28;20038;-72
2021/11/23 02:42:08;;;;;;;17.95;4.40;;;;;;;-1.34;49.19;99083.03;5014066;28;20162;-72
2021/11/23 02:44:41;;;;;;;17.55;4.97;;;;;;;-1.31;49.42;99099.53;5010738;28;20042;-72
2021/11/23 02:47:07;;;;;;;18.65;5.45;;;;;;;-1.34;49.36;99099.97;4996441;28;20426;-72
2021/11/23 02:49:34;;;;;;;18.77;5.57;;;;;;;-1.30;49.29;99111.91;4995289;28;20502;-71
2021/11/23 02:52:00;;;;;;;23.92;5.80;;;;;;;-1.38;49.44;99098.75;5015225;28;20481;-73
2021/11/23 02:54:28;;;;;;;20.40;6.90;;;;;;;-1.35;49.11;99101.00;5012171;28;20067;-73
2021/11/23 02:56:54;;;;;;;27.50;5.97;;;;;;;-1.41;49.45;99095.66;4983225;28;20165;-73
2021/11/23 02:59:21;;;;;;;22.08;6.38;;;;;;;-1.38;49.54;99106.78;5009016;28;20050;-72
2021/11/23 03:01:47;;;;;;;26.67;5.47;;;;;;;-1.42;49.61;99100.19;4977669;28;20042;-71
2021/11/23 03:04:17;;;;;;;23.65;5.88;;;;;;;-1.43;49.37;99102.06;5007478;28;20077;-71
2021/11/23 03:06:43;;;;;;;27.08;6.38;;;;;;;-1.45;49.77;99103.31;4997285;28;20052;-72
2021/11/23 03:09:10;;;;;;;20.45;7.13;;;;;;;-1.46;49.66;99107.03;4991666;28;20185;-71
2021/11/23 03:11:37;;;;;;;26.80;9.10;;;;;;;-1.42;49.75;99110.91;4979242;28;20050;-70
2021/11/23 03:14:03;;;;;;;43.28;12.50;;;;;;;-1.39;49.69;99110.50;4991022;28;20053;-73
2021/11/23 03:16:29;;;;;;;31.30;10.15;;;;;;;-1.40;49.62;99099.97;4995483;28;20089;-71
2021/11/23 03:18:55;;;;;;;29.38;9.07;;;;;;;-1.50;49.74;99089.72;5005117;28;20045;-71
2021/11/23 03:21:21;;;;;;;26.85;7.65;;;;;;;-1.40;49.71;99108.88;5015039;28;20053;-72
2021/11/23 03:23:48;;;;;;;22.67;6.43;;;;;;;-1.41;49.74;99109.06;5014192;28;20054;-72
2021/11/23 03:26:14;;;;;;;26.92;6.65;;;;;;;-1.45;49.71;99098.78;5014419;28;20048;-73
2021/11/23 03:28:42;;;;;;;23.15;7.25;;;;;;;-1.47;49.66;99106.22;5013215;28;20046;-73
2021/11/23 03:31:08;;;;;;;;;;;;;;;-1.50;49.95;99121.91;5012838;28;20506;-72
2021/11/23 03:33:34;;;;;;;19.90;5.35;;;;;;;-1.52;49.80;99121.28;5011210;28;19926;-71
2021/11/23 03:36:00;;;;;;;28.42;4.70;;;;;;;-1.50;49.76;99128.06;4999658;28;20046;-71
2021/11/23 03:38:28;;;;;;;18.57;5.87;;;;;;;-1.55;49.94;99124.41;5005492;28;20507;-72
2021/11/23 03:40:54;;;;;;;17.70;4.70;;;;;;;-1.61;50.14;99124.19;5008331;28;20050;-70
2021/11/23 03:43:20;;;;;;;14.00;4.80;;;;;;;-1.60;50.06;99128.53;5024853;28;20113;-70
2021/11/23 03:45:47;;;;;;;16.35;5.05;;;;;;;-1.54;50.12;99126.03;5011800;28;20132;-71
2021/11/23 03:48:14;;;;;;;16.30;4.97;;;;;;;-1.53;50.21;99125.81;5013258;28;20076;-71
2021/11/23 03:50:40;;;;;;;16.83;4.13;;;;;;;-1.58;50.26;99115.72;5010990;28;20049;-72
2021/11/23 03:53:07;;;;;;;13.80;4.57;;;;;;;-1.62;49.90;99117.19;4994564;28;20050;-73
2021/11/23 03:55:35;;;;;;;17.02;3.78;;;;;;;-1.63;50.14;99125.47;4992123;28;20673;-73
2021/11/23 03:58:02;;;;;;;20.52;4.47;;;;;;;-1.63;50.23;99120.09;5013079;28;20042;-73
2021/11/23 04:00:28;;;;;;;17.55;4.63;;;;;;;-1.60;50.25;99123.16;5012422;28;20144;-72
2021/11/23 04:02:56;;;;;;;20.65;5.10;;;;;;;-1.61;50.48;99126.88;5012965;28;20049;-70
2021/11/23 04:05:22;;;;;;;;;;;;;;;-1.64;50.31;99118.41;5012893;28;20586;-73
2021/11/23 04:07:50;;;;;;;18.37;4.27;;;;;;;-1.67;50.51;99118.84;5027459;28;20408;-72
2021/11/23 04:10:17;;;;;;;21.40;5.65;;;;;;;-1.69;50.47;99120.94;5008577;28;20477;-73
2021/11/23 04:12:46;;;;;;;34.35;5.88;;;;;;;-1.69;50.33;99120.94;5007921;28;20049;-72
2021/11/23 04:15:12;;;;;;;19.00;5.10;;;;;;;-1.68;50.16;99120.72;5006295;28;20080;-73
2021/11/23 04:17:38;;;;;;;24.13;5.95;;;;;;;-1.63;50.41;99114.72;5008389;28;20145;-72
2021/11/23 04:20:07;;;;;;;17.75;6.05;;;;;;;-1.63;50.29;99114.72;5008132;28;20207;-74
2021/11/23 04:22:34;;;;;;;30.85;6.40;;;;;;;-1.64;50.31;99119.25;5007393;28;20053;-73
2021/11/23 04:25:00;;;;;;;33.35;8.23;;;;;;;-1.66;50.43;99115.97;4992932;28;20057;-74
2021/11/23 04:27:28;;;;;;;28.02;7.40;;;;;;;-1.72;50.56;99122.16;5009597;28;20041;-73
2021/11/23 04:29:53;;;;;;;;;;;;;;;-1.72;50.78;99125.69;5009535;28;20446;-73
2021/11/23 04:32:19;;;;;;;34.03;9.07;;;;;;;-1.72;50.72;99128.34;5008967;28;19925;-73
2021/11/23 04:34:45;;;;;;;40.37;10.90;;;;;;;-1.73;50.67;99128.56;5011514;28;20141;-72
2021/11/23 04:37:15;;;;;;;46.83;11.07;;;;;;;-1.73;50.89;99124.03;5009135;28;20476;-73
2021/11/23 04:39:41;;;;;;;56.23;14.70;;;;;;;-1.69;50.68;99123.59;5008878;28;20056;-73
2021/11/23 04:42:07;;;;;;;58.13;14.10;;;;;;;-1.69;50.71;99127.13;4989314;28;20042;-73
2021/11/23 04:44:50;;;;;;;61.90;15.37;;;;;;;-1.81;50.86;99121.56;5008956;28;20056;-74
2021/11/23 04:47:49;;;;;;;49.10;11.80;;;;;;;-2.16;51.08;99063.75;5006518;28;20053;-73
2021/11/23 04:50:15;;;;;;;31.30;8.80;;;;;;;-1.67;50.96;99130.41;5008403;28;20517;-74
2021/11/23 04:52:43;;;;;;;30.92;7.93;;;;;;;-1.69;50.86;99124.44;5013076;28;20046;-74
2021/11/23 04:55:10;;;;;;;15.43;5.03;;;;;;;-1.69;50.92;99135.16;5010627;28;20085;-74
2021/11/23 04:57:36;;;;;;;27.00;6.03;;;;;;;-1.64;50.89;99140.72;4993060;28;20534;-74
2021/11/23 05:00:04;;;;;;;23.10;5.00;;;;;;;-1.78;51.36;99126.53;5009941;28;20088;-74
2021/11/23 05:02:31;;;;;;;15.93;4.28;;;;;;;-1.62;51.12;99140.50;5011297;28;20050;-73
2021/11/23 05:04:57;;;;;;;12.90;4.88;;;;;;;-1.55;51.08;99137.81;5012340;28;20403;-73
2021/11/23 05:07:23;;;;;;;15.63;3.90;;;;;;;-1.51;51.17;99131.78;5000712;28;20047;-73
2021/11/23 05:09:50;;;;;;;17.90;5.90;;;;;;;-1.60;51.17;99125.84;5007896;28;20073;-72
2021/11/23 05:12:17;;;;;;;18.50;4.63;;;;;;;-1.52;51.06;99150.78;4994149;28;20065;-72
2021/11/23 05:14:43;;;;;;;20.98;4.18;;;;;;;-1.53;51.19;99146.47;4977257;28;20042;-75
2021/11/23 05:17:09;;;;;;;22.83;4.57;;;;;;;-1.68;51.43;99135.97;4994867;28;20088;-74
2021/11/23 05:19:38;;;;;;;12.73;3.93;;;;;;;-1.63;51.59;99149.59;5006004;28;20042;-71
2021/11/23 05:22:05;;;;;;;19.92;4.60;;;;;;;-1.62;51.68;99156.59;5011112;28;20045;-74
2021/11/23 05:24:31;;;;;;;16.58;4.90;;;;;;;-1.63;51.68;99153.06;5006892;28;20052;-74
2021/11/23 05:26:58;;;;;;;21.30;4.28;;;;;;;-1.60;51.55;99158.00;4994759;28;20088;-74
2021/11/23 05:29:24;;;;;;;21.05;5.18;;;;;;;-1.53;51.70;99152.63;4982300;28;20049;-74
2021/11/23 05:31:51;;;;;;;23.77;4.70;;;;;;;-1.48;51.73;99155.53;5024034;28;20054;-74
2021/11/23 05:34:17;;;;;;;18.02;4.63;;;;;;;-1.46;51.62;99147.25;5009927;28;20116;-72
2021/11/23 05:36:44;;;;;;;17.27;5.05;;;;;;;-1.43;51.62;99150.34;5003616;28;20422;-72
2021/11/23 05:39:10;;;;;;;18.48;4.65;;;;;;;-1.48;51.70;99143.97;5000594;28;20033;-74
2021/11/23 05:41:37;;;;;;;25.17;5.15;;;;;;;-1.38;51.68;99155.06;4987730;28;20534;-73
2021/11/23 05:44:05;;;;;;;19.07;4.70;;;;;;;-1.42;51.75;99156.50;5002097;28;20046;-73
2021/11/23 05:46:31;;;;;;;16.13;4.82;;;;;;;-1.48;51.97;99163.56;5005092;28;20061;-69
2021/11/23 05:48:58;;;;;;;14.82;5.38;;;;;;;-1.47;52.15;99164.38;4999748;28;20124;-72
2021/11/23 05:51:25;;;;;;;13.40;4.80;;;;;;;-1.48;51.88;99165.41;5001803;28;20547;-69
2021/11/23 05:53:51;;;;;;;15.05;4.55;;;;;;;-1.44;51.99;99169.31;4999458;28;20385;-68
2021/11/23 05:56:17;;;;;;;22.70;5.25;;;;;;;-1.45;52.15;99164.97;5000636;28;20511;-69
2021/11/23 05:58:43;;;;;;;20.92;5.20;;;;;;;-1.56;52.12;99150.38;5006098;28;20076;-68
2021/11/23 06:01:10;;;;;;;20.15;6.60;;;;;;;-1.38;52.14;99168.47;5002104;28;20065;-69
2021/11/23 06:03:37;;;;;;;27.77;8.38;;;;;;;-1.41;52.31;99166.19;5008825;28;20148;-69
2021/11/23 06:06:03;;;;;;;25.75;7.88;;;;;;;-1.47;52.32;99164.38;5008621;28;20048;-70
2021/11/23 06:08:29;;;;;;;25.98;7.22;;;;;;;-1.46;52.83;99160.66;5009102;28;20537;-69
2021/11/23 06:10:55;;;;;;;29.08;8.30;;;;;;;-1.38;52.85;99168.47;5005526;28;20045;-69
2021/11/23 06:13:22;;;;;;;31.67;8.07;;;;;;;-1.31;52.78;99174.63;4996562;28;20053;-69
2021/11/23 06:15:48;;;;;;;29.00;6.80;;;;;;;-1.08;52.38;99178.69;4995054;28;20050;-70
2021/11/23 06:18:16;;;;;;;19.40;5.27;;;;;;;-1.03;52.27;99173.50;4983012;28;20052;-69
2021/11/23 06:20:43;;;;;;;21.05;5.28;;;;;;;-0.93;51.88;99178.38;4992949;28;20053;-71
2021/11/23 06:23:11;;;;;;;21.58;5.55;;;;;;;-1.01;52.16;99173.28;5009336;28;20403;-71
2021/11/23 06:25:37;;;;;;;26.83;5.30;;;;;;;-1.04;52.05;99165.63;5009669;28;20152;-71
2021/11/23 06:28:04;;;;;;;27.40;5.60;;;;;;;-0.92;52.12;99180.03;4994908;28;20043;-71
2021/11/23 06:30:31;;;;;;;20.55;5.55;;;;;;;-0.89;52.25;99181.47;4997485;28;20134;-70
2021/11/23 06:32:57;;;;;;;24.55;6.22;;;;;;;-0.83;52.25;99177.13;5003332;28;20129;-70
2021/11/23 06:35:25;;;;;;;22.85;6.03;;;;;;;-0.74;51.85;99168.59;5007445;28;20088;-70
2021/11/23 06:37:51;;;;;;;16.73;4.78;;;;;;;-0.57;51.80;99176.13;5009205;28;20049;-70
2021/11/23 06:40:17;;;;;;;19.40;4.97;;;;;;;-0.49;51.60;99166.97;5009143;28;20049;-70
2021/11/23 06:42:43;;;;;;;20.23;5.07;;;;;;;-0.48;51.63;99169.44;4997703;28;20053;-69
2021/11/23 06:45:10;;;;;;;24.65;5.85;;;;;;;-0.46;51.84;99174.59;4993053;28;20477;-69
2021/11/23 06:47:36;;;;;;;21.40;5.07;;;;;;;-0.48;51.74;99166.75;5008322;28;20050;-73
2021/11/23 06:50:02;;;;;;;18.65;5.32;;;;;;;-0.34;51.73;99172.03;4993980;28;20073;-75
2021/11/23 06:52:31;;;;;;;14.70;4.50;;;;;;;-0.32;51.62;99167.25;5018138;28;20042;-73
2021/11/23 06:54:57;;;;;;;27.45;4.80;;;;;;;-0.22;51.66;99175.66;5002136;28;20054;-72
2021/11/23 06:57:23;;;;;;;26.38;5.30;;;;;;;-0.17;51.30;99169.63;4996867;28;20096;-74
2021/11/23 06:59:49;;;;;;;28.85;5.38;;;;;;;-0.18;51.44;99184.09;5004119;28;20053;-73
2021/11/23 07:02:15;;;;;;;20.55;4.72;;;;;;;-0.11;51.40;99179.50;5006574;28;20045;-74
2021/11/23 07:04:41;;;;;;;17.63;4.90;;;;;;;-0.10;51.38;99183.81;5009723;28;20053;-73
2021/11/23 07:07:09;;;;;;;23.48;5.80;;;;;;;-0.12;51.54;99193.16;4991502;28;20128;-74
2021/11/23 07:09:37;;;;;;;24.27;6.50;;;;;;;-0.16;51.34;99184.72;5006705;28;20496;-73
2021/11/23 07:12:04;;;;;;;25.48;6.32;;;;;;;0.00;51.47;99194.09;4999434;28;20046;-73
2021/11/23 07:14:30;;;;;;;25.42;5.30;;;;;;;0.23;51.12;99193.44;5002291;28;20518;-74
2021/11/23 07:16:57;;;;;;;18.60;6.97;;;;;;;0.27;51.14;99196.53;5012992;28;20042;-73
2021/11/23 07:19:23;;;;;;;25.52;7.28;;;;;;;0.26;51.11;99192.19;5009243;28;20050;-74
2021/11/23 07:21:49;;;;;;;29.63;7.60;;;;;;;0.14;51.45;99179.47;4979651;28;20042;-75
2021/11/23 07:24:15;;;;;;;35.00;9.20;;;;;;;0.25;51.29;99188.69;4999886;28;20547;-74
2021/11/23 07:26:43;;;;;;;33.78;8.65;;;;;;;0.07;51.81;99184.09;5003090;28;20039;-72
2021/11/23 07:29:09;;;;;;;28.75;9.77;;;;;;;0.17;51.73;99204.28;5002147;28;20137;-72
2021/11/23 07:31:36;;;;;;;26.92;8.48;;;;;;;0.27;51.77;99204.59;5002355;28;20148;-73
2021/11/23 07:34:02;;;;;;;28.83;9.23;;;;;;;0.35;51.92;99206.16;4991837;28;20566;-73
2021/11/23 07:36:28;;;;;;;34.63;10.52;;;;;;;0.49;51.80;99207.69;5006249;28;20482;-74
2021/11/23 07:38:57;;;;;;;29.67;10.65;;;;;;;0.46;51.80;99191.16;5010881;28;20057;-73
2021/11/23 07:41:23;;;;;;;22.77;8.85;;;;;;;0.45;52.31;99208.34;5012915;28;20132;-73
2021/11/23 07:43:51;;;;;;;27.40;8.18;;;;;;;0.37;52.17;99204.91;4984102;28;20566;-71
2021/11/23 07:46:17;;;;;;;20.70;7.32;;;;;;;0.39;52.32;99202.81;4999783;28;20093;-74
2021/11/23 07:48:43;;;;;;;23.13;6.20;;;;;;;0.28;52.39;99209.75;5007228;28;20243;-72
2021/11/23 07:51:10;;;;;;;18.08;6.00;;;;;;;0.33;52.44;99210.97;5013543;28;20056;-74
2021/11/23 07:53:36;;;;;;;18.48;6.55;;;;;;;0.28;52.65;99208.94;4997847;28;20050;-72
2021/11/23 07:56:02;;;;;;;19.50;7.22;;;;;;;0.27;52.62;99216.19;5015364;28;20049;-71
2021/11/23 07:58:28;;;;;;;33.55;8.68;;;;;;;0.26;52.77;99208.31;5014727;28;20046;-73
2021/11/23 08:00:56;;;;;;;26.65;9.02;;;;;;;0.36;52.47;99219.41;5010920;28;20599;-72
2021/11/23 08:03:22;;;;;;;23.13;9.57;;;;;;;0.54;52.28;99205.13;4993464;28;20103;-72
2021/11/23 08:05:48;;;;;;;26.15;8.30;;;;;;;0.68;52.19;99211.22;5011266;28;20064;-73
2021/11/23 08:08:14;;;;;;;24.80;7.80;;;;;;;0.92;51.92;99207.84;5012614;28;20144;-74
2021/11/23 08:10:41;;;;;;;26.23;7.53;;;;;;;1.08;51.62;99198.31;5008102;28;20141;-74
2021/11/23 08:13:08;;;;;;;26.60;7.53;;;;;;;1.34;51.40;99204.41;4977580;28;20065;-73
2021/11/23 08:15:36;;;;;;;21.23;6.85;;;;;;;1.53;50.79;99199.78;5007116;28;20137;-73
2021/11/23 08:18:04;;;;;;;;;;;;;;;1.83;50.59;99207.00;5006961;28;20069;-71
2021/11/23 08:20:30;;;;;;;22.20;7.40;;;;;;;2.02;50.13;99204.22;5007715;28;19987;-73
2021/11/23 08:22:56;;;;;;;23.98;8.00;;;;;;;2.06;50.27;99205.38;5011674;28;20164;-72
2021/11/23 08:25:23;;;;;;;19.38;6.85;;;;;;;2.06;50.12;99202.69;4987990;28;20120;-72
2021/11/23 08:27:49;;;;;;;15.32;5.80;;;;;;;2.04;50.31;99199.41;5008874;28;20454;-72
2021/11/23 08:30:16;;;;;;;20.03;5.80;;;;;;;1.78;50.29;99190.69;5005299;28;20543;-72
2021/11/23 08:32:42;;;;;;;19.55;5.70;;;;;;;1.75;50.14;99196.53;4994312;28;20522;-71
2021/11/23 08:35:10;;;;;;;16.77;5.38;;;;;;;1.91;50.14;99201.25;4988958;28;20069;-72
2021/11/23 08:37:36;;;;;;;21.42;5.50;;;;;;;1.93;50.15;99184.88;5007492;28;20553;-73
2021/11/23 08:40:04;;;;;;;16.35;5.40;;;;;;;2.15;49.98;99205.88;5007267;28;20050;-73
2021/11/23 08:42:30;;;;;;;20.92;6.00;;;;;;;2.13;49.94;99203.41;5004317;28;20114;-72
2021/11/23 08:44:57;;;;;;;14.23;4.50;;;;;;;2.10;50.03;99203.84;5000943;28;20109;-73
2021/11/23 08:47:23;;;;;;;13.90;4.82;;;;;;;2.03;50.02;99198.59;5012525;28;20049;-73
2021/11/23 08:49:52;;;;;;;18.83;4.75;;;;;;;2.21;49.97;99194.16;5004323;28;20052;-72
2021/11/23 08:52:26;;;;;;;14.50;5.22;;;;;;;2.35;49.61;99197.44;5010533;28;20533;-77
2021/11/23 08:54:52;;;;;;;14.82;4.70;;;;;;;2.56;49.33;99204.09;5008962;28;20402;-73
2021/11/23 08:57:19;;;;;;;12.50;4.43;;;;;;;2.60;49.46;99199.88;4995824;28;20498;-77
2021/11/23 08:59:45;;;;;;;15.73;4.55;;;;;;;2.79;48.86;99203.25;5006086;28;20135;-77
2021/11/23 09:02:14;;;;;;;17.15;4.22;;;;;;;2.90;48.76;99200.75;5006764;28;20572;-80
2021/11/23 09:04:43;;;;;;;12.70;4.28;;;;;;;2.82;48.65;99193.84;5007153;28;20065;-79
2021/11/23 09:07:13;;;;;;;13.93;4.60;;;;;;;3.19;48.02;99192.66;4993982;28;20042;-81
2021/11/23 09:09:43;;;;;;;17.13;4.65;;;;;;;3.33;47.41;99195.91;5003992;28;20069;-80
2021/11/23 09:12:10;;;;;;;19.48;4.18;;;;;;;3.47;47.15;99204.53;5011397;28;20058;-80
2021/11/23 09:14:37;;;;;;;11.18;3.78;;;;;;;3.71;46.84;99205.22;5010353;28;20137;-80
2021/11/23 09:17:07;;;;;;;18.38;4.85;;;;;;;4.47;45.42;99195.03;4987299;28;20518;-80
2021/11/23 09:19:34;;;;;;;17.45;4.88;;;;;;;5.27;43.98;99202.00;5001287;28;20043;-80
2021/11/23 09:22:00;;;;;;;13.18;4.82;;;;;;;5.58;43.66;99199.59;5004285;28;20054;-80
2021/11/23 09:24:26;;;;;;;19.92;6.90;;;;;;;6.16;43.00;99199.84;5005641;28;20042;-79
2021/11/23 09:26:53;;;;;;;20.55;7.25;;;;;;;6.69;41.93;99190.13;4983516;28;20057;-78
2021/11/23 09:29:21;;;;;;;18.08;6.32;;;;;;;7.03;41.51;99185.13;5002762;28;20044;-79
2021/11/23 09:31:48;;;;;;;17.65;5.82;;;;;;;7.29;40.63;99162.63;4991504;28;20094;-80
2021/11/23 09:34:15;;;;;;;16.17;5.82;;;;;;;7.66;40.23;99181.47;5005014;28;20057;-80
2021/11/23 09:36:42;;;;;;;16.27;5.47;;;;;;;8.01;39.95;99200.81;5009604;28;20093;-80
2021/11/23 09:39:09;;;;;;;17.15;5.82;;;;;;;8.11;39.42;99197.25;4993394;28;20050;-81
2021/11/23 09:41:37;;;;;;;18.35;4.82;;;;;;;7.89;39.94;99183.94;5004214;28;20054;-81
2021/11/23 09:44:06;;;;;;;13.60;4.50;;;;;;;7.94;39.20;99186.63;5009055;28;20501;-80
2021/11/23 09:46:33;;;;;;;19.05;4.90;;;;;;;8.22;38.58;99176.28;5006204;28;20104;-80
2021/11/23 09:49:00;;;;;;;23.13;6.65;;;;;;;8.87;37.33;99182.97;5015133;28;20050;-81
2021/11/23 09:51:28;;;;;;;23.20;8.20;;;;;;;9.22;36.36;99173.81;5023385;28;20030;-80
2021/11/23 09:53:59;;;;;;;25.45;8.30;;;;;;;9.46;35.95;99167.66;5005728;28;20596;-83
2021/11/23 09:56:25;;;;;;;18.67;6.85;;;;;;;9.78;35.34;99168.28;5014933;28;20045;-80
2021/11/23 09:58:55;;;;;;;22.58;5.72;;;;;;;10.06;35.01;99172.13;5000675;28;20421;-82
2021/11/23 10:01:24;;;;;;;19.23;5.93;;;;;;;10.27;34.47;99182.84;5012497;28;20092;-82
2021/11/23 10:03:52;;;;;;;18.02;5.63;;;;;;;10.55;34.17;99187.84;5012672;28;20096;-82
2021/11/23 10:06:21;;;;;;;22.83;6.90;;;;;;;11.02;33.48;99183.47;5008970;28;20074;-80
2021/11/23 10:08:50;;;;;;;28.88;8.10;;;;;;;11.48;32.80;99179.28;5011555;28;20507;-80
2021/11/23 10:11:22;;;;;;;22.45;7.70;;;;;;;11.63;32.27;99171.94;5020798;28;20045;-80
2021/11/23 10:13:58;;;;;;;36.45;7.75;;;;;;;11.38;32.42;99126.59;5009528;28;20485;-78
2021/11/23 10:16:38;;;;;;;37.47;7.57;;;;;;;11.21;32.08;99117.78;4994166;28;20045;-79
2021/11/23 10:19:07;;;;;;;25.35;7.43;;;;;;;11.07;32.77;99119.63;5012891;28;20569;-81
2021/11/23 10:21:34;;;;;;;45.78;6.40;;;;;;;10.94;33.08;99177.81;5017695;28;20077;-80
2021/11/23 10:24:00;;;;;;;29.20;6.20;;;;;;;10.70;32.60;99159.50;5009889;28;20121;-80
2021/11/23 10:26:28;;;;;;;25.17;6.57;;;;;;;11.58;31.30;99177.50;5009070;28;20046;-82
2021/11/23 10:29:20;;;;;;;;;;;;;;;11.60;31.21;99175.28;5009769;28;20046;-80
2021/11/23 10:31:57;;;;;;;35.92;9.48;;;;;;;10.45;32.20;99167.69;5007900;28;19957;-79
2021/11/23 10:34:23;;;;;;;38.60;11.65;;;;;;;9.51;32.65;99109.50;5008497;28;20065;-77
2021/11/23 10:36:49;;;;;;;37.00;11.93;;;;;;;9.01;33.45;99145.84;5009314;28;20046;-78
2021/11/23 10:39:18;;;;;;;36.57;12.13;;;;;;;8.56;34.55;99178.41;5009319;28;20082;-76
2021/11/23 10:41:50;;;;;;;35.72;11.23;;;;;;;8.01;34.90;99189.91;5015314;28;20049;-77
2021/11/23 10:44:18;;;;;;;32.17;10.68;;;;;;;7.45;35.55;99185.25;5017950;28;20050;-77
2021/11/23 10:46:52;;;;;;;38.22;11.45;;;;;;;7.05;36.41;99185.66;5010999;28;20566;-76
2021/11/23 10:49:27;;;;;;;36.45;12.10;;;;;;;6.65;36.77;99184.44;4996942;28;20050;-77
2021/11/23 10:51:54;;;;;;;38.33;13.48;;;;;;;6.33;37.19;99177.19;5002045;28;20052;-75
2021/11/23 10:54:20;;;;;;;32.13;12.27;;;;;;;6.23;37.19;99186.06;4996872;28;20068;-77
2021/11/23 10:56:57;;;;;;;32.50;13.55;;;;;;;6.09;37.63;99186.53;5000610;28;20289;-76
2021/11/23 10:59:24;;;;;;;28.15;9.93;;;;;;;5.76;38.11;99161.25;5013584;28;20048;-76
2021/11/23 11:01:52;;;;;;;22.20;8.85;;;;;;;5.74;38.21;99179.69;5011357;28;20046;-76
2021/11/23 11:04:19;;;;;;;23.30;9.70;;;;;;;5.56;38.45;99174.63;4975790;28;20353;-76
2021/11/23 11:06:47;;;;;;;34.25;12.27;;;;;;;5.44;38.40;99172.88;5002786;28;20629;-77
2021/11/23 11:09:15;;;;;;;31.17;12.25;;;;;;;5.38;38.53;99179.34;5005849;28;20076;-76
2021/11/23 11:11:42;;;;;;;36.00;12.38;;;;;;;5.30;38.62;99177.91;5014338;28;20041;-76
2021/11/23 11:14:11;;;;;;;34.20;13.17;;;;;;;5.30;38.60;99174.38;5007885;28;20069;-78
2021/11/23 11:16:38;;;;;;;37.78;15.15;;;;;;;4.96;39.29;99178.09;5012917;28;20046;-75
2021/11/23 11:19:07;;;;;;;45.67;16.20;;;;;;;4.96;39.42;99172.66;5009545;28;20049;-77
2021/11/23 11:21:37;;;;;;;35.95;12.23;;;;;;;4.67;39.78;99173.66;5007930;28;20048;-75
2021/11/23 11:24:33;;;;;;;33.30;11.63;;;;;;;4.60;39.86;99174.91;5004264;28;20054;-80
2021/11/23 11:27:11;;;;;;;30.92;9.50;;;;;;;4.44;39.96;99169.28;4993022;28;20628;-78
2021/11/23 11:29:38;;;;;;;36.45;7.43;;;;;;;4.48;40.09;99172.31;5005385;28;20116;-81